Time;durP1;ratioP1;P1;durP2;ratioP2;P2;SDS_P1;SDS_P2;PMS_P1;PMS_P2;Temp;Humidity;BMP_temperature;BMP_pressure;BME280_temperature;BME280_humidity;BME280_pressure;Samples;Min_cycle;Max_cycle;Signal;HPM_P1;HPM_P2
2023/10/07 00:00:51;;;;;;;9.35;5.93;;;;;;;15.26;68.33;100875.78;10345888;28;20675;-56
2023/10/07 00:06:00;;;;;;;8.55;5.55;;;;;;;15.41;68.59;100912.94;10343784;28;20076;-55
2023/10/07 00:11:09;;;;;;;9.25;6.35;;;;;;;15.38;67.48;100900.63;10340793;28;20054;-56
2023/10/07 00:16:14;;;;;;;10.18;6.45;;;;;;;15.28;68.12;100900.66;10341073;28;20053;-55
2023/10/07 00:21:24;;;;;;;10.32;6.43;;;;;;;15.29;68.86;100890.75;10342942;28;20050;-53
2023/10/07 00:26:27;;;;;;;9.80;7.10;;;;;;;14.98;67.98;100845.22;10347271;28;20522;-55
2023/10/07 00:31:33;;;;;;;16.42;9.05;;;;;;;15.10;68.98;100879.00;10343317;28;20046;-55
2023/10/07 00:41:50;;;;;;;11.77;7.05;;;;;;;15.10;69.62;100876.34;10341270;28;20671;-54
2023/10/07 00:52:22;;;;;;;12.45;7.32;;;;;;;14.93;69.60;100871.63;10337812;28;20049;-55
2023/10/07 00:57:35;;;;;;;10.40;7.53;;;;;;;14.81;69.81;100871.72;10340753;28;20046;-55
2023/10/07 01:02:37;;;;;;;11.18;7.18;;;;;;;14.89;70.14;100862.16;10332743;28;20115;-55
2023/10/07 01:07:46;;;;;;;13.77;7.95;;;;;;;14.83;69.59;100864.41;10336678;28;20076;-54
2023/10/07 01:12:51;;;;;;;13.98;8.73;;;;;;;14.72;70.15;100861.81;10332385;28;20392;-54
2023/10/07 01:17:57;;;;;;;12.35;8.68;;;;;;;14.67;71.18;100858.72;10332298;28;20279;-56
2023/10/07 01:23:06;;;;;;;13.63;7.40;;;;;;;14.74;70.80;100849.16;10338887;28;20049;-54
2023/10/07 01:28:08;;;;;;;11.98;8.55;;;;;;;14.70;70.74;100841.50;10330616;28;20613;-55
2023/10/07 01:33:25;;;;;;;12.80;8.30;;;;;;;14.71;70.45;100846.72;10331582;28;20061;-55
2023/10/07 01:38:28;;;;;;;14.00;7.85;;;;;;;14.68;70.62;100838.94;10331091;28;20305;-54
2023/10/07 01:43:29;;;;;;;12.27;8.02;;;;;;;14.63;71.37;100857.28;10331727;28;20049;-55
2023/10/07 01:48:35;;;;;;;11.82;8.35;;;;;;;14.60;70.93;100874.44;10328223;28;20269;-54
2023/10/07 01:53:38;;;;;;;13.85;8.35;;;;;;;14.66;71.35;100883.78;10331843;28;20414;-55
2023/10/07 01:58:40;;;;;;;11.77;8.05;;;;;;;14.65;71.29;100877.59;10330242;28;20439;-55
2023/10/07 02:03:43;;;;;;;13.70;7.95;;;;;;;14.59;70.09;100861.16;10323548;28;20265;-55
2023/10/07 02:08:46;;;;;;;12.67;8.47;;;;;;;14.52;70.93;100866.22;10330986;28;20076;-55
2023/10/07 02:13:47;;;;;;;14.75;9.52;;;;;;;14.43;72.57;100875.06;10332196;28;20325;-54
2023/10/07 02:18:49;;;;;;;15.38;9.07;;;;;;;14.42;71.89;100873.38;10331690;28;20048;-54
2023/10/07 02:23:50;;;;;;;13.30;8.57;;;;;;;14.33;72.14;100872.31;10323937;28;20141;-54
2023/10/07 02:28:53;;;;;;;13.07;8.43;;;;;;;14.19;72.27;100851.28;10327168;28;20720;-55
2023/10/07 02:33:58;;;;;;;11.77;9.10;;;;;;;14.17;73.05;100867.44;10328562;28;20060;-55
2023/10/07 02:39:05;;;;;;;15.90;9.23;;;;;;;14.17;72.84;100867.44;10330227;28;20038;-55
2023/10/07 02:44:15;;;;;;;16.92;9.25;;;;;;;14.07;72.72;100861.19;10323991;28;20583;-55
2023/10/07 02:49:20;;;;;;;12.30;8.98;;;;;;;13.92;73.64;100858.84;10322780;28;20065;-55
2023/10/07 02:54:23;;;;;;;12.32;8.07;;;;;;;14.01;73.12;100870.59;10320599;28;20399;-54
2023/10/07 02:59:35;;;;;;;12.48;8.45;;;;;;;13.97;73.63;100880.69;10326699;28;20724;-55
2023/10/07 03:04:41;;;;;;;12.45;8.30;;;;;;;14.00;73.82;100882.28;10324278;28;20132;-54
2023/10/07 03:09:54;;;;;;;15.60;8.75;;;;;;;14.00;73.07;100884.94;10327461;28;20211;-55
2023/10/07 03:14:59;;;;;;;11.57;8.27;;;;;;;13.98;73.70;100884.25;10326325;28;20298;-54
2023/10/07 03:25:33;;;;;;;10.90;7.72;;;;;;;13.96;73.95;100854.06;10323755;28;20046;-55
2023/10/07 03:30:36;;;;;;;12.60;7.90;;;;;;;13.98;75.02;100878.88;10328887;28;20155;-54
2023/10/07 03:41:12;;;;;;;12.85;7.95;;;;;;;13.97;74.46;100870.00;10305738;28;20167;-55
2023/10/07 03:46:17;;;;;;;14.32;8.68;;;;;;;13.95;74.67;100857.75;10334574;28;20049;-56
2023/10/07 03:51:21;;;;;;;12.20;8.00;;;;;;;13.92;74.85;100858.00;10332476;28;20207;-55
2023/10/07 03:56:23;;;;;;;14.38;7.88;;;;;;;13.90;74.33;100865.28;10328669;28;20550;-54
2023/10/07 04:01:26;;;;;;;11.70;8.35;;;;;;;13.87;75.95;100855.72;10337069;28;20053;-55
2023/10/07 04:06:31;;;;;;;13.65;8.25;;;;;;;13.85;73.98;100849.63;10328371;28;20053;-54
2023/10/07 04:11:36;;;;;;;12.13;8.07;;;;;;;13.44;74.51;100782.59;10338937;28;20050;-54
2023/10/07 04:16:42;;;;;;;14.05;8.05;;;;;;;13.78;74.53;100841.28;10330761;28;20057;-55
2023/10/07 04:21:50;;;;;;;15.95;8.63;;;;;;;13.83;74.26;100840.06;10328304;28;20251;-55
2023/10/07 04:26:54;;;;;;;12.77;7.85;;;;;;;13.85;75.46;100852.31;10334684;28;20060;-55
2023/10/07 04:32:10;;;;;;;11.60;8.13;;;;;;;13.85;74.89;100862.16;10334741;28;20053;-54
2023/10/07 04:37:14;;;;;;;11.50;7.83;;;;;;;13.85;75.06;100878.22;10326325;28;20113;-55
2023/10/07 04:42:22;;;;;;;13.43;8.70;;;;;;;13.85;74.98;100863.00;10332653;28;20049;-55
2023/10/07 04:47:35;;;;;;;14.50;8.43;;;;;;;13.81;74.78;100866.06;10327963;28;20723;-55
2023/10/07 04:52:50;;;;;;;12.60;8.27;;;;;;;13.72;74.35;100852.50;10331058;28;20042;-56
2023/10/07 05:02:57;;;;;;;14.38;9.02;;;;;;;13.70;75.37;100848.25;10330302;28;20065;-55
2023/10/07 05:08:19;;;;;;;10.10;8.15;;;;;;;13.70;76.16;100867.81;10332722;28;20277;-54
2023/10/07 05:13:21;;;;;;;13.00;9.13;;;;;;;13.65;75.27;100845.13;10329947;28;20064;-54
2023/10/07 05:18:22;;;;;;;12.43;7.80;;;;;;;13.57;76.86;100853.78;10329058;28;20056;-54
2023/10/07 05:23:24;;;;;;;11.65;8.15;;;;;;;13.57;76.08;100848.44;10329796;28;20057;-57
2023/10/07 05:28:27;;;;;;;12.45;8.25;;;;;;;13.50;75.94;100866.00;10330257;28;20541;-54
2023/10/07 05:33:32;;;;;;;12.55;9.00;;;;;;;13.55;76.30;100866.44;10327282;28;20643;-55
2023/10/07 05:38:35;;;;;;;16.10;9.13;;;;;;;13.49;75.94;100872.31;10327657;28;20231;-55
2023/10/07 05:43:36;;;;;;;11.15;8.75;;;;;;;13.51;75.84;100871.22;10328456;28;20064;-55
2023/10/07 05:48:40;;;;;;;12.05;7.70;;;;;;;13.60;76.71;100872.25;10326537;28;20057;-54
2023/10/07 05:53:49;;;;;;;10.77;7.43;;;;;;;13.57;75.56;100877.84;10327628;28;20053;-55
2023/10/07 05:58:51;;;;;;;10.55;8.18;;;;;;;13.31;76.19;100848.75;10336662;28;20366;-54
2023/10/07 06:03:52;;;;;;;13.82;8.13;;;;;;;13.46;76.47;100872.56;10324896;28;20045;-54
2023/10/07 06:08:54;;;;;;;10.90;7.63;;;;;;;13.41;77.40;100867.59;10327992;28;20045;-55
2023/10/07 06:13:55;;;;;;;11.35;7.50;;;;;;;13.57;77.02;100886.75;10333487;28;20072;-55
2023/10/07 06:18:58;;;;;;;12.07;8.05;;;;;;;13.61;75.89;100888.16;10326110;28;20049;-55
2023/10/07 06:24:06;;;;;;;12.35;7.30;;;;;;;13.59;76.16;100883.94;10316517;28;20481;-56
2023/10/07 06:29:18;;;;;;;11.85;7.07;;;;;;;13.65;76.49;100891.44;10329783;28;20044;-55
2023/10/07 06:34:25;;;;;;;13.07;7.75;;;;;;;13.63;76.10;100876.50;10322375;28;20101;-54
2023/10/07 06:39:29;;;;;;;12.77;7.70;;;;;;;13.69;76.17;100882.19;10336463;28;20037;-54
2023/10/07 06:44:31;;;;;;;10.75;7.68;;;;;;;13.65;76.84;100867.38;10334770;28;20364;-54
2023/10/07 06:49:39;;;;;;;9.32;7.10;;;;;;;13.74;76.23;100877.31;10339146;28;20293;-55
2023/10/07 06:54:40;;;;;;;8.80;5.93;;;;;;;13.83;76.49;100885.53;10343006;28;20484;-56
2023/10/07 07:00:08;;;;;;;12.02;7.07;;;;;;;13.86;76.30;100890.63;10338149;28;20053;-55
2023/10/07 07:05:16;;;;;;;9.73;6.30;;;;;;;13.81;75.86;100903.53;10336012;28;20330;-54
2023/10/07 07:10:27;;;;;;;9.13;6.05;;;;;;;13.77;76.21;100906.47;10332227;28;20439;-55
2023/10/07 07:15:36;;;;;;;9.15;6.70;;;;;;;13.85;75.98;100910.34;10338585;28;20048;-54
2023/10/07 07:20:49;;;;;;;10.73;6.63;;;;;;;13.81;76.23;100915.13;10337254;28;20071;-54
2023/10/07 07:31:10;;;;;;;10.52;6.72;;;;;;;13.95;76.57;100924.66;10320452;28;20084;-54
2023/10/07 07:36:24;;;;;;;9.07;6.85;;;;;;;13.92;76.48;100919.56;10319223;28;20046;-54
2023/10/07 07:41:27;;;;;;;10.40;6.80;;;;;;;13.93;76.62;100923.91;10336933;28;20110;-55
2023/10/07 07:46:29;;;;;;;10.95;6.90;;;;;;;13.87;76.32;100945.84;10336443;28;20262;-54
2023/10/07 07:51:37;;;;;;;12.73;7.75;;;;;;;13.70;76.13;100924.00;10333012;28;20054;-54
2023/10/07 07:56:38;;;;;;;9.43;6.53;;;;;;;13.90;76.83;100945.59;10326143;28;20208;-53
2023/10/07 08:01:44;;;;;;;10.93;8.10;;;;;;;13.90;77.30;100937.56;10333638;28;20136;-55
2023/10/07 08:06:49;;;;;;;8.77;6.90;;;;;;;13.88;76.37;100926.13;10331434;28;20049;-58
2023/10/07 08:11:51;;;;;;;10.32;7.35;;;;;;;13.95;77.05;100936.19;10333187;28;21344;-57
2023/10/07 08:16:52;;;;;;;11.52;6.78;;;;;;;13.98;76.50;100951.16;10338372;28;20049;-55
2023/10/07 08:21:54;;;;;;;10.70;7.15;;;;;;;13.97;76.61;100965.50;10342673;28;20049;-55
2023/10/07 08:27:03;;;;;;;9.27;6.78;;;;;;;14.10;76.65;100962.66;10340668;28;20531;-55
2023/10/07 08:32:14;;;;;;;10.60;6.78;;;;;;;14.04;76.50;100956.00;10323863;28;20054;-58
2023/10/07 08:37:16;;;;;;;11.00;6.57;;;;;;;14.12;76.39;100955.34;10342821;28;20048;-55
2023/10/07 08:42:24;;;;;;;10.18;7.03;;;;;;;14.19;76.17;100956.53;10341717;28;20358;-56
2023/10/07 08:47:27;;;;;;;10.60;6.80;;;;;;;14.03;76.45;100913.28;10341059;28;20057;-54
2023/10/07 08:52:29;;;;;;;11.63;7.13;;;;;;;14.08;76.03;100917.28;10343214;28;20519;-54
2023/10/07 08:57:34;;;;;;;10.35;6.47;;;;;;;14.42;76.06;100965.25;10340838;28;20085;-55
2023/10/07 09:02:39;;;;;;;8.88;6.35;;;;;;;14.57;75.49;100964.94;10336536;28;20072;-55
2023/10/07 09:07:48;;;;;;;7.82;6.03;;;;;;;14.72;75.15;100958.28;10347438;28;20065;-55
2023/10/07 09:12:50;;;;;;;9.85;6.68;;;;;;;14.81;74.74;100946.75;10342264;28;20048;-55
2023/10/07 09:18:17;;;;;;;10.90;6.45;;;;;;;14.89;74.65;100938.03;10340483;28;20536;-55
2023/10/07 09:23:23;;;;;;;10.43;6.07;;;;;;;14.91;74.86;100921.84;10341276;28;20041;-54
2023/10/07 09:28:33;;;;;;;11.27;6.78;;;;;;;14.76;75.03;100911.47;10339715;28;21455;-54
2023/10/07 09:33:36;;;;;;;11.73;6.78;;;;;;;14.98;74.92;100931.03;10341589;28;20060;-55
2023/10/07 09:38:41;;;;;;;8.95;5.88;;;;;;;14.99;74.91;100930.03;10344839;28;20527;-55
2023/10/07 09:43:47;;;;;;;8.48;5.85;;;;;;;15.14;74.53;100946.59;10337208;28;20124;-54
2023/10/07 09:48:51;;;;;;;11.23;6.45;;;;;;;15.16;74.47;100947.31;10333051;28;20565;-55
2023/10/07 09:54:07;;;;;;;12.15;6.35;;;;;;;15.30;74.48;100940.72;10328782;28;20042;-55
2023/10/07 09:59:37;;;;;;;10.00;6.75;;;;;;;15.63;73.41;100934.16;10332201;28;20100;-55
2023/10/07 10:04:53;;;;;;;7.93;6.20;;;;;;;15.84;72.16;100935.91;10330631;28;20123;-55
2023/10/07 10:10:06;;;;;;;9.65;6.32;;;;;;;16.24;71.50;100933.03;10334515;28;20053;-55
2023/10/07 10:20:27;;;;;;;8.82;5.82;;;;;;;16.53;70.53;100945.53;10337911;28;20527;-54
2023/10/07 10:30:50;;;;;;;9.93;6.50;;;;;;;16.64;70.32;100941.00;10326542;28;20049;-54
2023/10/07 10:35:52;;;;;;;;;;;;;;;17.37;69.35;100932.16;10331116;28;20134;-55
2023/10/07 10:40:54;;;;;;;9.48;5.28;;;;;;;17.85;67.71;100947.16;10328083;28;20303;-55
2023/10/07 10:46:06;;;;;;;9.13;5.95;;;;;;;17.63;67.43;100938.50;10328342;28;20057;-56
2023/10/07 10:51:09;;;;;;;8.23;5.07;;;;;;;17.45;68.60;100941.19;10327092;28;20153;-56
2023/10/07 10:56:13;;;;;;;8.82;5.50;;;;;;;17.40;68.67;100937.25;10328170;28;20437;-55
2023/10/07 11:01:15;;;;;;;6.95;5.25;;;;;;;17.36;69.44;100919.72;10332785;28;20139;-55
2023/10/07 11:06:19;;;;;;;7.50;5.43;;;;;;;17.24;69.69;100890.34;10332668;28;20061;-55
2023/10/07 11:11:20;;;;;;;;;;;;;;;17.81;68.88;100924.22;10332193;28;20128;-54
2023/10/07 11:16:22;;;;;;;6.53;4.47;;;;;;;18.67;66.61;100893.84;10327294;28;20008;-59
2023/10/07 11:21:24;;;;;;;9.05;4.90;;;;;;;18.93;64.73;100913.72;10323743;28;20590;-55
2023/10/07 11:26:31;;;;;;;7.72;5.25;;;;;;;18.93;65.79;100911.03;10325628;28;20056;-55
2023/10/07 11:31:32;;;;;;;8.55;5.18;;;;;;;19.32;64.53;100891.56;10327698;28;20702;-55
2023/10/07 11:36:45;;;;;;;9.75;4.72;;;;;;;19.89;62.35;100890.81;10321138;28;20117;-55
2023/10/07 11:41:47;;;;;;;7.20;5.55;;;;;;;20.35;60.80;100883.00;10327198;28;20049;-55
2023/10/07 11:46:50;;;;;;;8.63;4.75;;;;;;;21.05;60.26;100888.69;10330485;28;20072;-56
2023/10/07 11:51:52;;;;;;;6.40;5.28;;;;;;;21.74;57.81;100872.56;10336695;28;20053;-56
2023/10/07 11:56:53;;;;;;;8.48;4.40;;;;;;;22.15;56.26;100877.59;10338333;28;20247;-55
2023/10/07 12:01:57;;;;;;;7.57;4.00;;;;;;;22.37;55.22;100870.47;10343569;28;20311;-56
2023/10/07 12:06:58;;;;;;;7.25;4.50;;;;;;;22.44;53.37;100846.13;10338866;28;20099;-57
2023/10/07 12:12:02;;;;;;;8.48;4.60;;;;;;;23.00;52.21;100855.59;10335953;28;20302;-56
2023/10/07 12:17:04;;;;;;;8.77;4.32;;;;;;;23.83;51.85;100861.50;10338710;28;20293;-48
2023/10/07 12:22:06;;;;;;;7.75;4.32;;;;;;;24.70;48.76;100868.41;10326741;28;20049;-50
2023/10/07 12:27:10;;;;;;;7.07;4.47;;;;;;;25.27;45.74;100859.22;10327896;28;20217;-50
2023/10/07 12:32:12;;;;;;;5.30;3.90;;;;;;;25.76;45.71;100842.53;10335168;28;20045;-49
2023/10/07 12:37:14;;;;;;;7.63;3.80;;;;;;;26.36;44.46;100852.56;10330494;28;20479;-48
2023/10/07 12:42:18;;;;;;;6.45;3.75;;;;;;;26.77;43.86;100848.66;10342680;28;20065;-48
2023/10/07 12:47:21;;;;;;;6.25;3.40;;;;;;;26.98;42.80;100852.97;10339729;28;20767;-49
2023/10/07 12:52:26;;;;;;;8.43;3.72;;;;;;;27.21;42.45;100854.31;10337379;28;20056;-49
2023/10/07 12:57:28;;;;;;;6.55;3.72;;;;;;;27.23;42.20;100852.19;10340481;28;20387;-54
2023/10/07 13:02:30;;;;;;;;;;;;;;;27.50;40.72;100861.13;10339344;28;20178;-56
2023/10/07 13:07:31;;;;;;;5.50;2.97;;;;;;;26.30;43.62;100845.19;10343165;28;20002;-57
2023/10/07 13:12:34;;;;;;;5.85;3.15;;;;;;;25.66;45.20;100849.44;10333573;28;20589;-56
2023/10/07 13:17:35;;;;;;;;;;;;;;;24.63;46.19;100845.75;10335713;28;20060;-55
2023/10/07 13:22:37;;;;;;;6.10;3.42;;;;;;;23.57;48.71;100840.34;10343538;28;19921;-56
2023/10/07 13:27:40;;;;;;;3.55;2.50;;;;;;;23.45;48.93;100831.91;10337099;28;20099;-56
2023/10/07 13:32:46;;;;;;;4.43;3.33;;;;;;;23.40;50.13;100824.31;10350713;28;20131;-56
2023/10/07 13:37:50;;;;;;;5.72;3.10;;;;;;;27.03;42.07;100825.00;10332575;28;20140;-55
2023/10/07 13:42:53;;;;;;;4.38;3.17;;;;;;;30.03;35.52;100811.66;10338456;28;20140;-55
2023/10/07 13:47:55;;;;;;;5.40;3.10;;;;;;;30.61;34.19;100807.19;10327264;28;20055;-57
2023/10/07 13:57:59;;;;;;;3.30;2.73;;;;;;;31.57;32.03;100791.91;10330593;28;20189;-55
2023/10/07 14:03:05;;;;;;;4.30;3.15;;;;;;;31.77;31.19;100790.56;10341376;28;20884;-55
2023/10/07 14:08:15;;;;;;;4.35;3.00;;;;;;;31.61;31.56;100782.06;10329337;28;20053;-56
2023/10/07 14:13:19;;;;;;;3.33;2.47;;;;;;;31.77;31.65;100782.28;10333431;28;20162;-55
2023/10/07 14:18:23;;;;;;;5.38;3.40;;;;;;;31.49;31.73;100792.31;10342488;28;20565;-54
2023/10/07 14:23:30;;;;;;;4.25;2.70;;;;;;;29.53;34.85;100801.09;10334653;28;20828;-55
2023/10/07 14:28:32;;;;;;;4.07;2.60;;;;;;;27.10;39.31;100784.81;10331123;28;20196;-55
2023/10/07 14:33:34;;;;;;;3.95;3.08;;;;;;;26.00;41.08;100793.88;10327159;28;20049;-55
2023/10/07 14:38:41;;;;;;;8.10;3.63;;;;;;;24.78;44.19;100787.63;10327670;28;20641;-55
2023/10/07 14:43:43;;;;;;;5.10;3.35;;;;;;;24.07;45.56;100802.31;10330054;28;20042;-57
2023/10/07 14:48:45;;;;;;;6.07;3.90;;;;;;;23.87;46.76;100802.16;10331301;28;20099;-55
2023/10/07 14:53:48;;;;;;;4.35;3.13;;;;;;;23.48;47.34;100788.06;10329735;28;20049;-55
2023/10/07 14:58:50;;;;;;;5.38;3.63;;;;;;;23.17;48.06;100802.78;10332396;28;20114;-55
2023/10/07 15:03:54;;;;;;;6.43;3.78;;;;;;;22.91;49.25;100811.47;10331347;28;20061;-55
2023/10/07 15:08:56;;;;;;;4.75;2.85;;;;;;;22.67;49.65;100796.34;10331430;28;20164;-55
2023/10/07 15:13:58;;;;;;;4.73;3.00;;;;;;;22.46;50.18;100808.84;10336778;28;20088;-55
2023/10/07 15:19:01;;;;;;;5.65;2.90;;;;;;;22.24;50.88;100805.97;10337879;28;20131;-55
2023/10/07 15:24:06;;;;;;;3.88;2.63;;;;;;;22.00;51.46;100798.13;10338309;28;20911;-54
2023/10/07 15:29:08;;;;;;;4.90;2.78;;;;;;;21.95;52.19;100804.09;10337812;28;20053;-55
2023/10/07 15:34:10;;;;;;;4.25;2.70;;;;;;;21.89;52.36;100792.13;10331852;28;20067;-55
2023/10/07 15:39:15;;;;;;;4.20;3.00;;;;;;;21.69;53.25;100789.13;10340075;28;20064;-55
2023/10/07 15:44:18;;;;;;;5.10;2.70;;;;;;;21.61;53.60;100791.06;10333412;28;20065;-55
2023/10/07 15:49:19;;;;;;;8.20;3.50;;;;;;;21.51;54.13;100785.88;10329658;28;20725;-54
2023/10/07 15:54:21;;;;;;;5.97;3.13;;;;;;;21.43;54.58;100783.22;10337861;28;20057;-55
2023/10/07 15:59:23;;;;;;;5.15;2.92;;;;;;;21.36;55.03;100777.69;10329049;28;20115;-56
2023/10/07 16:04:27;;;;;;;6.90;3.28;;;;;;;21.23;55.94;100769.31;10329098;28;20061;-56
2023/10/07 16:09:30;;;;;;;4.93;3.38;;;;;;;21.12;56.27;100763.34;10333592;28;20617;-55
2023/10/07 16:14:33;;;;;;;8.67;3.37;;;;;;;20.83;57.21;100735.09;10323589;28;20625;-55
2023/10/07 16:19:37;;;;;;;7.07;4.13;;;;;;;20.97;57.43;100759.69;10330957;28;20323;-55
2023/10/07 16:24:39;;;;;;;9.25;3.60;;;;;;;20.83;57.36;100755.91;10333140;28;20049;-55
2023/10/07 16:29:41;;;;;;;4.25;3.33;;;;;;;20.72;57.96;100740.94;10335111;28;20056;-56
2023/10/07 16:34:42;;;;;;;7.95;4.28;;;;;;;20.59;58.65;100727.09;10327434;28;20329;-54
2023/10/07 16:39:45;;;;;;;9.45;4.18;;;;;;;20.58;59.17;100720.88;10337684;28;20073;-54
2023/10/07 16:44:46;;;;;;;5.20;4.10;;;;;;;20.45;59.80;100720.59;10338182;28;20595;-55
2023/10/07 16:49:48;;;;;;;6.03;3.80;;;;;;;20.36;60.43;100727.91;10341775;28;20187;-54
2023/10/07 16:54:49;;;;;;;6.20;3.90;;;;;;;20.31;60.58;100730.28;10338994;28;20140;-55
2023/10/07 16:59:51;;;;;;;7.78;4.45;;;;;;;20.24;60.99;100740.13;10331046;28;20101;-55
2023/10/07 17:04:56;;;;;;;9.88;4.97;;;;;;;20.22;61.21;100752.94;10354112;28;20399;-55
2023/10/07 17:09:57;;;;;;;4.57;3.30;;;;;;;20.17;61.49;100742.66;10326785;28;20077;-56
2023/10/07 17:14:59;;;;;;;7.18;3.35;;;;;;;20.11;61.69;100765.81;10336302;28;20061;-56
2023/10/07 17:20:06;;;;;;;5.68;3.53;;;;;;;20.09;61.45;100765.16;10338889;28;20446;-55
2023/10/07 17:25:09;;;;;;;6.13;3.58;;;;;;;19.98;61.71;100765.50;10343801;28;20622;-55
2023/10/07 17:30:15;;;;;;;8.82;3.83;;;;;;;20.00;61.89;100787.81;10343234;28;20061;-54
2023/10/07 17:35:17;;;;;;;5.53;3.60;;;;;;;20.01;61.72;100781.41;10340845;28;20131;-56
2023/10/07 17:40:19;;;;;;;5.65;3.40;;;;;;;19.88;61.82;100751.38;10343995;28;20080;-56
2023/10/07 17:45:22;;;;;;;7.38;3.40;;;;;;;19.95;61.71;100779.38;10336758;28;20797;-56
2023/10/07 17:50:23;;;;;;;4.35;3.28;;;;;;;19.94;61.93;100789.34;10340750;28;20858;-57
2023/10/07 17:55:25;;;;;;;5.07;2.78;;;;;;;19.89;61.99;100804.38;10343587;28;20061;-54
2023/10/07 18:00:28;;;;;;;5.65;3.53;;;;;;;19.85;62.35;100805.75;10340613;28;20398;-55
2023/10/07 18:05:30;;;;;;;6.28;3.58;;;;;;;19.64;62.21;100793.59;10334089;28;20876;-56
2023/10/07 18:10:32;;;;;;;7.53;3.35;;;;;;;19.77;62.70;100809.25;10338309;28;20080;-54
2023/10/07 18:15:34;;;;;;;7.50;3.55;;;;;;;19.76;62.45;100813.81;10327139;28;20177;-56
2023/10/07 18:20:35;;;;;;;4.90;3.42;;;;;;;19.72;62.75;100801.66;10329606;28;20424;-56
2023/10/07 18:25:37;;;;;;;5.45;3.20;;;;;;;19.73;62.85;100789.84;10338704;28;20046;-56
2023/10/07 18:30:39;;;;;;;5.03;2.92;;;;;;;19.70;62.88;100770.47;10338274;28;20061;-55
2023/10/07 18:35:41;;;;;;;5.68;3.75;;;;;;;19.58;63.37;100751.06;10335191;28;20057;-54
2023/10/07 18:40:43;;;;;;;5.60;3.70;;;;;;;19.58;63.29;100748.38;10338844;28;20048;-46
2023/10/07 18:45:44;;;;;;;4.82;3.17;;;;;;;19.51;63.49;100752.75;10331855;28;20044;-46
2023/10/07 18:50:46;;;;;;;5.50;3.30;;;;;;;19.49;63.62;100741.28;10335513;28;20640;-46
2023/10/07 18:55:54;;;;;;;6.18;3.50;;;;;;;19.48;63.51;100761.19;10340424;28;20128;-46
2023/10/07 19:00:59;;;;;;;6.43;3.17;;;;;;;19.42;63.54;100785.13;10335358;28;20041;-46
2023/10/07 19:06:01;;;;;;;5.68;3.25;;;;;;;19.39;63.50;100781.94;10332965;28;20093;-45
2023/10/07 19:11:09;;;;;;;4.85;3.22;;;;;;;19.41;63.82;100788.88;10334362;28;20366;-45
2023/10/07 19:16:15;;;;;;;4.45;2.80;;;;;;;19.38;63.98;100788.34;10335000;28;20643;-46
2023/10/07 19:21:17;;;;;;;5.35;3.33;;;;;;;19.38;63.85;100785.63;10334159;28;20064;-45
2023/10/07 19:26:18;;;;;;;6.65;3.13;;;;;;;19.38;63.67;100805.41;10328367;28;20142;-54
2023/10/07 19:31:20;;;;;;;5.97;3.30;;;;;;;19.38;63.69;100794.59;10341168;28;20095;-54
2023/10/07 19:36:22;;;;;;;4.78;2.90;;;;;;;19.34;63.77;100797.81;10339141;28;20073;-55
2023/10/07 19:41:23;;;;;;;4.68;3.10;;;;;;;19.28;64.03;100796.63;10336443;28;20064;-54
2023/10/07 19:46:25;;;;;;;6.53;4.10;;;;;;;19.29;64.16;100790.22;10323754;28;20594;-56
2023/10/07 19:51:27;;;;;;;6.22;3.78;;;;;;;19.24;64.37;100773.66;10335273;28;20737;-56
2023/10/07 19:56:29;;;;;;;5.53;2.97;;;;;;;19.22;64.23;100794.59;10334335;28;20085;-55
2023/10/07 20:01:30;;;;;;;5.35;3.72;;;;;;;19.17;64.54;100791.53;10335163;28;20053;-55
2023/10/07 20:06:32;;;;;;;5.78;3.15;;;;;;;19.10;64.33;100780.56;10332386;28;20232;-55
2023/10/07 20:11:33;;;;;;;6.47;3.65;;;;;;;19.13;64.49;100785.63;10331906;28;20061;-54
2023/10/07 20:16:35;;;;;;;4.78;3.25;;;;;;;19.15;64.46;100799.78;10340554;28;20042;-55
2023/10/07 20:21:38;;;;;;;3.85;3.15;;;;;;;19.13;64.38;100790.19;10341459;28;20052;-54
2023/10/07 20:26:45;;;;;;;4.68;3.28;;;;;;;19.01;64.82;100782.41;10343426;28;20057;-54
2023/10/07 20:31:46;;;;;;;5.72;3.70;;;;;;;19.05;64.89;100785.59;10338883;28;20053;-52
2023/10/07 20:36:48;;;;;;;6.05;3.28;;;;;;;19.06;64.75;100773.81;10339929;28;20049;-53
2023/10/07 20:41:49;;;;;;;7.43;3.63;;;;;;;19.04;65.02;100787.47;10336990;28;20397;-51
2023/10/07 20:46:51;;;;;;;5.47;3.45;;;;;;;19.06;65.11;100788.13;10337678;28;20504;-50
2023/10/07 20:51:52;;;;;;;5.43;3.65;;;;;;;19.07;65.12;100781.75;10337837;28;20382;-51
2023/10/07 20:56:54;;;;;;;6.18;3.88;;;;;;;18.88;64.78;100749.69;10337960;28;20339;-51
2023/10/07 21:01:56;;;;;;;7.05;3.03;;;;;;;19.11;65.03;100782.28;10342974;28;20060;-50
2023/10/07 21:06:57;;;;;;;4.88;2.90;;;;;;;19.08;64.80;100783.44;10338744;28;20056;-51
2023/10/07 21:11:59;;;;;;;6.28;3.40;;;;;;;18.93;65.05;100779.72;10337210;28;20343;-55
2023/10/07 21:17:01;;;;;;;4.80;2.92;;;;;;;18.91;65.09;100773.63;10342895;28;20131;-54
2023/10/07 21:22:03;;;;;;;6.43;3.38;;;;;;;18.91;65.20;100789.81;10336886;28;20058;-55
2023/10/07 21:27:04;;;;;;;4.95;2.90;;;;;;;18.94;65.47;100781.38;10349239;28;20049;-56
2023/10/07 21:32:05;;;;;;;5.55;3.05;;;;;;;18.92;65.42;100788.81;10342254;28;20553;-54
2023/10/07 21:37:07;;;;;;;6.60;3.10;;;;;;;18.94;65.48;100792.16;10333205;28;20046;-55
2023/10/07 21:42:08;;;;;;;6.20;3.53;;;;;;;18.89;65.71;100797.22;10347319;28;20104;-54
2023/10/07 21:47:10;;;;;;;4.32;2.88;;;;;;;18.89;65.64;100789.13;10340638;28;20054;-53
2023/10/07 21:52:11;;;;;;;5.70;2.97;;;;;;;18.86;65.78;100795.69;10339916;28;20045;-54
2023/10/07 21:57:13;;;;;;;3.88;3.47;;;;;;;18.84;65.94;100802.22;10339205;28;20050;-54
2023/10/07 22:02:16;;;;;;;6.93;3.28;;;;;;;18.81;66.14;100800.72;10341607;28;20624;-54
2023/10/07 22:07:19;;;;;;;6.03;2.90;;;;;;;18.60;66.45;100774.19;10342523;28;20541;-56
2023/10/07 22:12:22;;;;;;;5.53;2.83;;;;;;;18.71;66.43;100798.16;10336668;28;20602;-54
2023/10/07 22:17:23;;;;;;;4.28;3.13;;;;;;;18.70;66.33;100784.81;10339402;28;20054;-55
2023/10/07 22:22:29;;;;;;;7.05;3.15;;;;;;;18.63;66.47;100790.03;10347238;28;20137;-54
2023/10/07 22:27:31;;;;;;;6.30;3.58;;;;;;;18.58;66.48;100780.75;10336278;28;20042;-56
2023/10/07 22:32:34;;;;;;;5.05;2.97;;;;;;;18.61;66.85;100796.59;10340301;28;20037;-54
2023/10/07 22:37:38;;;;;;;4.47;2.60;;;;;;;18.47;66.97;100782.72;10344364;28;20136;-55
2023/10/07 22:42:42;;;;;;;5.68;3.70;;;;;;;18.57;66.63;100790.69;10344764;28;20722;-55
2023/10/07 22:47:46;;;;;;;5.47;2.92;;;;;;;18.52;67.12;100793.03;10334164;28;20462;-56
2023/10/07 22:52:54;;;;;;;4.35;2.65;;;;;;;18.47;67.47;100787.28;10341153;28;20053;-55
2023/10/07 22:58:00;;;;;;;4.97;2.97;;;;;;;18.48;67.41;100808.69;10333319;28;20050;-56
2023/10/07 23:03:13;;;;;;;4.15;2.80;;;;;;;18.48;67.26;100799.72;10339459;28;20052;-54
2023/10/07 23:08:15;;;;;;;5.05;3.00;;;;;;;18.44;67.74;100793.84;10339964;28;20474;-54
2023/10/07 23:13:24;;;;;;;6.93;3.53;;;;;;;18.41;67.72;100790.63;10334676;28;20045;-55
2023/10/07 23:18:26;;;;;;;5.22;2.92;;;;;;;18.32;67.93;100793.28;10331334;28;20056;-55
2023/10/07 23:23:41;;;;;;;3.40;2.80;;;;;;;18.25;68.10;100781.44;10339644;28;20154;-55
2023/10/07 23:28:43;;;;;;;5.00;2.75;;;;;;;18.32;67.92;100809.44;10335977;28;20057;-55
2023/10/07 23:33:47;;;;;;;16.05;4.68;;;;;;;18.21;68.21;100790.88;10343539;28;20056;-56
2023/10/07 23:38:48;;;;;;;6.25;3.67;;;;;;;18.15;68.57;100819.28;10333945;28;20095;-55
2023/10/07 23:43:50;;;;;;;6.05;3.03;;;;;;;18.23;68.81;100826.56;10332022;28;20180;-55
2023/10/07 23:48:55;;;;;;;4.95;3.75;;;;;;;18.17;68.82;100828.06;10331923;28;20134;-55
2023/10/07 23:53:56;;;;;;;5.07;3.50;;;;;;;18.16;69.08;100820.97;10344651;28;20671;-54
2023/10/07 23:59:09;;;;;;;7.43;3.63;;;;;;;18.10;69.33;100804.59;10345501;28;20578;-55
